createdAt,value
2017-07-23T00:00:23.080Z,0
2017-07-23T00:01:03.610Z,0
2017-07-23T00:01:44.135Z,0
2017-07-23T00:02:24.675Z,0
2017-07-23T00:03:05.205Z,0
2017-07-23T00:03:45.738Z,0
2017-07-23T00:04:26.284Z,0
2017-07-23T00:05:06.821Z,0
2017-07-23T00:05:47.365Z,0
2017-07-23T00:06:27.899Z,0
2017-07-23T00:07:08.441Z,0
2017-07-23T00:07:48.974Z,0
2017-07-23T00:08:29.508Z,0
2017-07-23T00:09:10.030Z,0
2017-07-23T00:09:50.566Z,0
2017-07-23T00:10:31.086Z,0
2017-07-23T00:11:11.613Z,0
2017-07-23T00:11:52.135Z,0
2017-07-23T00:12:32.688Z,0
2017-07-23T00:13:13.233Z,0
2017-07-23T00:13:53.758Z,0
2017-07-23T00:14:34.285Z,0
2017-07-23T00:15:14.825Z,0
2017-07-23T00:15:55.366Z,0
2017-07-23T00:16:35.902Z,0
2017-07-23T00:17:16.434Z,0
2017-07-23T00:17:56.972Z,0
2017-07-23T00:18:37.489Z,0
2017-07-23T00:19:18.026Z,0
2017-07-23T00:19:58.568Z,0
2017-07-23T00:20:39.092Z,0
2017-07-23T00:21:19.611Z,0
2017-07-23T00:22:00.135Z,0
2017-07-23T00:22:40.678Z,0
2017-07-23T00:23:21.202Z,0
2017-07-23T00:24:01.738Z,0
2017-07-23T00:24:42.270Z,0
2017-07-23T00:25:22.795Z,0
2017-07-23T00:26:03.334Z,0
2017-07-23T00:26:43.878Z,0
2017-07-23T00:27:24.423Z,0
2017-07-23T00:28:04.972Z,0
2017-07-23T00:28:45.492Z,0
2017-07-23T00:29:26.017Z,0
2017-07-23T00:30:06.553Z,0
2017-07-23T00:30:47.090Z,0
2017-07-23T00:31:27.628Z,0
2017-07-23T00:32:08.163Z,0
2017-07-23T00:32:48.696Z,0
2017-07-23T00:33:29.236Z,0
2017-07-23T00:34:09.779Z,0
2017-07-23T00:34:50.308Z,0
2017-07-23T00:35:30.845Z,0
2017-07-23T00:36:11.428Z,0
2017-07-23T00:36:51.971Z,0
2017-07-23T00:37:32.532Z,0
2017-07-23T00:38:13.031Z,0
2017-07-23T00:38:53.574Z,0
2017-07-23T00:39:34.121Z,0
2017-07-23T00:40:14.652Z,0
2017-07-23T00:40:55.189Z,0
2017-07-23T00:41:35.719Z,0
2017-07-23T00:42:16.235Z,0
2017-07-23T00:42:56.768Z,0
2017-07-23T00:43:37.300Z,0
2017-07-23T00:44:17.831Z,0
2017-07-23T00:44:58.358Z,0
2017-07-23T00:45:38.894Z,0
2017-07-23T00:46:19.438Z,0
2017-07-23T00:46:59.954Z,0
2017-07-23T00:47:40.553Z,0
2017-07-23T00:48:21.095Z,0
2017-07-23T00:49:01.628Z,0
2017-07-23T00:49:42.180Z,0
2017-07-23T00:50:22.707Z,0
2017-07-23T00:51:03.208Z,0
2017-07-23T00:51:43.746Z,0
2017-07-23T00:52:24.265Z,0
2017-07-23T00:53:04.843Z,0
2017-07-23T00:53:45.397Z,0
2017-07-23T00:54:25.940Z,0
2017-07-23T00:55:06.481Z,0
2017-07-23T00:55:46.994Z,0
2017-07-23T00:56:27.534Z,0
2017-07-23T00:57:08.071Z,0
2017-07-23T00:57:48.605Z,0
2017-07-23T00:58:29.132Z,0
2017-07-23T00:59:09.675Z,0
2017-07-23T00:59:50.215Z,0
2017-07-23T01:00:30.737Z,0
2017-07-23T01:01:11.298Z,0
2017-07-23T01:01:51.799Z,0
2017-07-23T01:02:32.331Z,0
2017-07-23T01:03:12.869Z,0
2017-07-23T01:03:53.414Z,0
2017-07-23T01:04:33.968Z,0
2017-07-23T01:05:14.478Z,0
2017-07-23T01:05:55.009Z,0
2017-07-23T01:06:35.547Z,0
2017-07-23T01:07:16.083Z,0
2017-07-23T01:07:56.607Z,0
2017-07-23T01:08:37.152Z,0
2017-07-23T01:09:17.684Z,0
2017-07-23T01:09:58.221Z,0
2017-07-23T01:10:38.763Z,0
2017-07-23T01:11:19.299Z,0
2017-07-23T01:11:59.831Z,0
2017-07-23T01:12:40.381Z,0
2017-07-23T01:13:20.905Z,0
2017-07-23T01:14:01.436Z,0
2017-07-23T01:14:41.965Z,0
2017-07-23T01:15:22.567Z,0
2017-07-23T01:16:03.036Z,0
2017-07-23T01:16:43.579Z,0
2017-07-23T01:17:24.109Z,0
2017-07-23T01:18:04.640Z,0
2017-07-23T01:18:45.180Z,0
2017-07-23T01:19:25.720Z,0
2017-07-23T01:20:06.260Z,0
2017-07-23T01:20:46.788Z,0
2017-07-23T01:21:27.334Z,0
2017-07-23T01:22:07.865Z,0
2017-07-23T01:22:48.403Z,0
2017-07-23T01:23:28.942Z,0
2017-07-23T01:24:09.462Z,0
2017-07-23T01:24:50.000Z,0
2017-07-23T01:25:30.559Z,0
2017-07-23T01:26:11.056Z,0
2017-07-23T01:26:51.596Z,0
2017-07-23T01:27:32.135Z,0
2017-07-23T01:28:12.675Z,0
2017-07-23T01:28:53.199Z,0
2017-07-23T01:29:33.768Z,0
2017-07-23T01:30:14.311Z,0
2017-07-23T01:30:54.850Z,0
2017-07-23T01:31:35.396Z,0
2017-07-23T01:32:15.935Z,0
2017-07-23T01:32:56.476Z,0
2017-07-23T01:33:37.012Z,0
2017-07-23T01:34:17.576Z,0
2017-07-23T01:34:58.113Z,0
2017-07-23T01:35:38.646Z,0
2017-07-23T01:36:19.186Z,0
2017-07-23T01:36:59.731Z,0
2017-07-23T01:37:40.272Z,0
2017-07-23T01:38:20.806Z,0
2017-07-23T01:39:01.351Z,0
2017-07-23T01:39:41.890Z,0
2017-07-23T01:40:22.447Z,0
2017-07-23T01:41:02.961Z,0
2017-07-23T01:41:43.490Z,0
2017-07-23T01:42:24.020Z,0
2017-07-23T01:43:04.585Z,0
2017-07-23T01:43:45.105Z,0
2017-07-23T01:44:25.653Z,0
2017-07-23T01:45:06.175Z,0
2017-07-23T01:45:46.699Z,0
2017-07-23T01:46:27.251Z,0
2017-07-23T01:47:07.795Z,0
2017-07-23T01:47:48.302Z,0
2017-07-23T01:48:28.823Z,0
2017-07-23T01:49:09.355Z,0
2017-07-23T01:49:49.882Z,0
2017-07-23T01:50:30.401Z,0
2017-07-23T01:51:10.953Z,0
2017-07-23T01:51:51.466Z,0
2017-07-23T01:52:32.012Z,0
2017-07-23T01:53:12.534Z,0
2017-07-23T01:53:53.056Z,0
2017-07-23T01:54:33.561Z,0
2017-07-23T01:55:14.111Z,0
2017-07-23T01:55:54.658Z,0
2017-07-23T01:56:35.172Z,0
2017-07-23T01:57:15.691Z,0
2017-07-23T01:57:56.218Z,0
2017-07-23T01:58:36.752Z,0
2017-07-23T01:59:17.301Z,0
2017-07-23T01:59:57.845Z,0
2017-07-23T02:00:38.367Z,0
2017-07-23T02:01:18.913Z,0
2017-07-23T02:01:59.444Z,0
2017-07-23T02:02:39.975Z,0
2017-07-23T02:03:20.516Z,0
2017-07-23T02:04:01.081Z,0
2017-07-23T02:04:41.618Z,0
2017-07-23T02:05:22.164Z,0
2017-07-23T02:06:02.707Z,0
2017-07-23T02:06:43.229Z,0
2017-07-23T02:07:23.776Z,0
2017-07-23T02:08:04.307Z,0
2017-07-23T02:08:44.837Z,0
2017-07-23T02:09:25.439Z,0
2017-07-23T02:10:05.978Z,0
2017-07-23T02:10:46.514Z,0
2017-07-23T02:11:27.045Z,0
2017-07-23T02:12:07.579Z,0
2017-07-23T02:12:48.116Z,0
2017-07-23T02:13:28.664Z,0
2017-07-23T02:14:09.203Z,0
2017-07-23T02:14:49.735Z,0
2017-07-23T02:15:30.270Z,0
2017-07-23T02:16:10.812Z,0
2017-07-23T02:16:51.341Z,0
2017-07-23T02:17:31.867Z,0
2017-07-23T02:18:12.398Z,0
2017-07-23T02:18:52.924Z,0
2017-07-23T02:19:33.455Z,0
2017-07-23T02:20:13.989Z,0
2017-07-23T02:20:54.527Z,0
2017-07-23T02:21:35.071Z,0
2017-07-23T02:22:15.613Z,0
2017-07-23T02:22:56.177Z,0
2017-07-23T02:23:36.711Z,0
2017-07-23T02:24:17.248Z,0
2017-07-23T02:24:57.814Z,0
2017-07-23T02:25:38.367Z,0
2017-07-23T02:26:18.900Z,0
2017-07-23T02:26:59.441Z,0
2017-07-23T02:27:39.977Z,0
2017-07-23T02:28:20.508Z,0
2017-07-23T02:29:01.039Z,0
2017-07-23T02:29:41.578Z,0
2017-07-23T02:30:22.120Z,0
2017-07-23T02:31:02.666Z,0
2017-07-23T02:31:43.210Z,0
2017-07-23T02:32:23.748Z,0
2017-07-23T02:33:04.277Z,0
2017-07-23T02:33:44.820Z,0
2017-07-23T02:34:25.362Z,0
2017-07-23T02:35:05.914Z,0
2017-07-23T02:35:46.479Z,0
2017-07-23T02:36:27.011Z,0
2017-07-23T02:37:07.548Z,0
2017-07-23T02:37:48.091Z,0
2017-07-23T02:38:28.638Z,0
2017-07-23T02:39:09.183Z,0
2017-07-23T02:39:49.715Z,0
2017-07-23T02:40:30.254Z,0
2017-07-23T02:41:10.787Z,0
2017-07-23T02:41:51.335Z,0
2017-07-23T02:42:31.864Z,0
2017-07-23T02:43:12.479Z,0
2017-07-23T02:43:53.005Z,0
2017-07-23T02:44:33.529Z,0
2017-07-23T02:45:14.067Z,0
2017-07-23T02:45:54.607Z,0
2017-07-23T02:46:35.154Z,0
2017-07-23T02:47:15.697Z,0
2017-07-23T02:47:56.255Z,0
2017-07-23T02:48:36.801Z,0
2017-07-23T02:49:17.337Z,0
2017-07-23T02:49:57.879Z,0
2017-07-23T02:50:38.417Z,0
2017-07-23T02:51:18.946Z,0
2017-07-23T02:51:59.478Z,0
2017-07-23T02:52:40.016Z,0
2017-07-23T02:53:20.560Z,0
2017-07-23T02:54:01.101Z,0
2017-07-23T02:54:41.642Z,0
2017-07-23T02:55:22.183Z,0
2017-07-23T02:56:02.721Z,0
2017-07-23T02:56:43.243Z,0
2017-07-23T02:57:23.772Z,0
2017-07-23T02:58:04.306Z,0
2017-07-23T02:58:44.837Z,0
2017-07-23T02:59:25.377Z,0
2017-07-23T03:00:05.916Z,0
2017-07-23T03:00:46.453Z,0
2017-07-23T03:01:26.973Z,0
2017-07-23T03:02:07.482Z,0
2017-07-23T03:02:48.029Z,0
2017-07-23T03:03:28.547Z,0
2017-07-23T03:04:09.075Z,0
2017-07-23T03:04:49.612Z,0
2017-07-23T03:05:30.153Z,0
2017-07-23T03:06:10.696Z,0
2017-07-23T03:06:51.230Z,0
2017-07-23T03:07:31.748Z,0
2017-07-23T03:08:12.281Z,0
2017-07-23T03:08:52.817Z,0
2017-07-23T03:09:33.427Z,0
2017-07-23T03:10:13.962Z,0
2017-07-23T03:10:54.489Z,0
2017-07-23T03:11:35.013Z,0
2017-07-23T03:12:15.541Z,0
2017-07-23T03:12:56.076Z,0
2017-07-23T03:13:36.599Z,0
2017-07-23T03:14:17.141Z,0
2017-07-23T03:14:57.678Z,0
2017-07-23T03:15:38.221Z,0
2017-07-23T03:16:18.744Z,0
2017-07-23T03:16:59.287Z,0
2017-07-23T03:17:39.818Z,4
2017-07-23T03:18:20.354Z,4
2017-07-23T03:19:00.899Z,4
2017-07-23T03:19:41.423Z,4
2017-07-23T03:20:21.959Z,4
2017-07-23T03:21:02.488Z,4
2017-07-23T03:21:43.021Z,4
2017-07-23T03:22:23.564Z,4
2017-07-23T03:23:04.089Z,4
2017-07-23T03:23:44.621Z,8
2017-07-23T03:24:25.146Z,4
2017-07-23T03:25:05.688Z,8
2017-07-23T03:25:46.225Z,12
2017-07-23T03:26:26.744Z,8
2017-07-23T03:27:07.272Z,8
2017-07-23T03:27:47.892Z,12
2017-07-23T03:28:28.407Z,12
2017-07-23T03:29:08.945Z,12
2017-07-23T03:29:49.486Z,16
2017-07-23T03:30:30.026Z,12
2017-07-23T03:31:10.548Z,16
2017-07-23T03:31:51.114Z,16
2017-07-23T03:32:31.645Z,16
2017-07-23T03:33:12.166Z,20
2017-07-23T03:33:52.712Z,20
2017-07-23T03:34:33.219Z,20
2017-07-23T03:35:13.758Z,24
2017-07-23T03:35:54.296Z,24
2017-07-23T03:36:34.821Z,24
2017-07-23T03:37:15.350Z,24
2017-07-23T03:37:55.869Z,28
2017-07-23T03:38:36.404Z,28
2017-07-23T03:39:16.937Z,32
2017-07-23T03:39:57.482Z,32
2017-07-23T03:40:38.009Z,36
2017-07-23T03:41:18.550Z,36
2017-07-23T03:41:59.079Z,36
2017-07-23T03:42:39.615Z,36
2017-07-23T03:43:20.188Z,40
2017-07-23T03:44:00.725Z,44
2017-07-23T03:44:41.277Z,44
2017-07-23T03:45:21.797Z,40
2017-07-23T03:46:02.344Z,40
2017-07-23T03:46:42.874Z,40
2017-07-23T03:47:23.388Z,48
2017-07-23T03:48:03.922Z,48
2017-07-23T03:48:44.456Z,52
2017-07-23T03:49:24.995Z,56
2017-07-23T03:50:05.524Z,60
2017-07-23T03:50:46.060Z,68
2017-07-23T03:51:26.590Z,72
2017-07-23T03:52:07.126Z,72
2017-07-23T03:52:47.654Z,72
2017-07-23T03:53:28.189Z,80
2017-07-23T03:54:08.718Z,84
2017-07-23T03:54:49.263Z,80
2017-07-23T03:55:29.790Z,84
2017-07-23T03:56:10.332Z,84
2017-07-23T03:56:50.882Z,88
2017-07-23T03:57:31.416Z,92
2017-07-23T03:58:11.951Z,104
2017-07-23T03:58:52.479Z,108
2017-07-23T03:59:33.019Z,116
2017-07-23T04:00:13.561Z,120
2017-07-23T04:00:54.105Z,124
2017-07-23T04:01:34.625Z,128
2017-07-23T04:02:15.146Z,132
2017-07-23T04:02:55.682Z,132
2017-07-23T04:03:36.220Z,132
2017-07-23T04:04:16.751Z,136
2017-07-23T04:04:57.273Z,152
2017-07-23T04:05:37.785Z,176
2017-07-23T04:06:18.301Z,204
2017-07-23T04:06:58.836Z,228
2017-07-23T04:07:39.363Z,240
2017-07-23T04:08:19.888Z,244
2017-07-23T04:09:00.394Z,256
2017-07-23T04:09:40.947Z,276
2017-07-23T04:10:21.409Z,292
2017-07-23T04:11:01.949Z,304
2017-07-23T04:11:42.464Z,304
2017-07-23T04:12:22.984Z,304
2017-07-23T04:13:03.516Z,312
2017-07-23T04:13:44.038Z,324
2017-07-23T04:14:24.562Z,332
2017-07-23T04:15:05.089Z,348
2017-07-23T04:15:45.623Z,376
2017-07-23T04:16:27.734Z,408
2017-07-23T04:18:59.760Z,476
2017-07-23T04:21:19.973Z,468
2017-07-23T04:22:37.052Z,480
2017-07-23T04:23:18.910Z,524
2017-07-23T04:24:39.352Z,600
2017-07-23T04:25:21.692Z,708
2017-07-23T04:29:30.749Z,972
2017-07-23T04:30:11.247Z,896
2017-07-23T04:30:51.780Z,832
2017-07-23T04:31:32.318Z,808
2017-07-23T04:32:12.839Z,760
2017-07-23T04:32:53.905Z,772
2017-07-23T04:33:34.449Z,804
2017-07-23T04:34:14.982Z,828
2017-07-23T04:34:55.517Z,836
2017-07-23T04:35:36.493Z,860
2017-07-23T04:36:19.471Z,860
2017-07-23T04:37:02.311Z,812
2017-07-23T04:37:45.289Z,788
2017-07-23T04:38:27.841Z,760
2017-07-23T04:39:10.830Z,724
2017-07-23T04:41:26.701Z,796
2017-07-23T04:43:27.643Z,776
2017-07-23T04:44:10.472Z,808
2017-07-23T04:44:52.799Z,816
2017-07-23T04:45:35.216Z,800
2017-07-23T04:48:08.567Z,828
2017-07-23T04:48:51.679Z,884
2017-07-23T04:49:34.131Z,940
2017-07-23T04:50:16.573Z,932
2017-07-23T04:50:59.388Z,920
2017-07-23T04:51:42.075Z,956
2017-07-23T04:52:24.087Z,1016
2017-07-23T04:53:06.454Z,1084
2017-07-23T04:53:48.702Z,1096
2017-07-23T04:54:30.830Z,1100
2017-07-23T04:55:13.165Z,1088
2017-07-23T04:55:54.023Z,1108
2017-07-23T04:56:34.555Z,1104
2017-07-23T04:57:15.088Z,1116
2017-07-23T04:57:55.592Z,1152
2017-07-23T04:58:36.136Z,1180
2017-07-23T04:59:16.659Z,1192
2017-07-23T04:59:57.192Z,1264
2017-07-23T05:00:37.686Z,1284
2017-07-23T05:01:18.224Z,1284
2017-07-23T05:01:58.770Z,1332
2017-07-23T05:02:39.389Z,1428
2017-07-23T05:03:19.959Z,1428
2017-07-23T05:04:00.467Z,1372
2017-07-23T05:04:40.962Z,1332
2017-07-23T05:05:21.487Z,1356
2017-07-23T05:06:02.014Z,1372
2017-07-23T05:06:42.529Z,1376
2017-07-23T05:07:23.051Z,1384
2017-07-23T05:08:03.636Z,1392
2017-07-23T05:08:44.377Z,1384
2017-07-23T05:09:24.954Z,1380
2017-07-23T05:10:05.479Z,1400
2017-07-23T05:10:46.000Z,1444
2017-07-23T05:11:26.540Z,1504
2017-07-23T05:12:07.067Z,1496
2017-07-23T05:12:47.575Z,1548
2017-07-23T05:13:28.115Z,1660
2017-07-23T05:14:08.659Z,1688
2017-07-23T05:14:49.228Z,1688
2017-07-23T05:15:29.677Z,1736
2017-07-23T05:16:10.215Z,1824
2017-07-23T05:16:50.791Z,1860
2017-07-23T05:17:31.349Z,1852
2017-07-23T05:18:11.873Z,1888
2017-07-23T05:18:52.362Z,1884
2017-07-23T05:19:32.981Z,1900
2017-07-23T05:20:13.513Z,1884
2017-07-23T05:20:54.086Z,1848
2017-07-23T05:21:34.595Z,1840
2017-07-23T05:22:15.095Z,1860
2017-07-23T05:22:55.619Z,1860
2017-07-23T05:23:36.138Z,1832
2017-07-23T05:24:16.666Z,1824
2017-07-23T05:24:57.179Z,1828
2017-07-23T05:25:37.721Z,1936
2017-07-23T05:26:18.243Z,1916
2017-07-23T05:26:58.744Z,1892
2017-07-23T05:27:39.234Z,1840
2017-07-23T05:28:19.744Z,1912
2017-07-23T05:29:00.295Z,2096
2017-07-23T05:29:40.817Z,2196
2017-07-23T05:30:21.335Z,2144
2017-07-23T05:31:01.843Z,2304
2017-07-23T05:31:42.374Z,2500
2017-07-23T05:32:22.889Z,2496
2017-07-23T05:33:03.419Z,2492
2017-07-23T05:33:43.931Z,2564
2017-07-23T05:34:24.446Z,2696
2017-07-23T05:35:04.975Z,2784
2017-07-23T05:35:45.481Z,2844
2017-07-23T05:36:25.986Z,2864
2017-07-23T05:37:06.489Z,2828
2017-07-23T05:37:47.158Z,2840
2017-07-23T05:38:27.675Z,2904
2017-07-23T05:39:08.191Z,2968
2017-07-23T05:39:48.699Z,3024
2017-07-23T05:40:29.228Z,3008
2017-07-23T05:41:09.758Z,2912
2017-07-23T05:41:50.324Z,2840
2017-07-23T05:42:30.854Z,2816
2017-07-23T05:43:11.399Z,2648
2017-07-23T05:43:51.936Z,2556
2017-07-23T05:44:32.442Z,2516
2017-07-23T05:45:12.968Z,2436
2017-07-23T05:45:53.494Z,2456
2017-07-23T05:46:33.985Z,2512
2017-07-23T05:47:14.503Z,2512
2017-07-23T05:47:55.013Z,2456
2017-07-23T05:48:36.228Z,2452
2017-07-23T05:49:16.763Z,2404
2017-07-23T05:49:57.293Z,2396
2017-07-23T05:50:37.802Z,2472
2017-07-23T05:51:19.906Z,2584
2017-07-23T05:52:00.433Z,2616
2017-07-23T05:52:40.976Z,2600
2017-07-23T05:53:21.497Z,2432
2017-07-23T05:54:01.998Z,2284
2017-07-23T05:54:42.527Z,2188
2017-07-23T05:55:23.058Z,2048
2017-07-23T05:56:03.640Z,1912
2017-07-23T05:56:44.178Z,1936
2017-07-23T05:57:24.743Z,1948
2017-07-23T05:58:05.256Z,1988
2017-07-23T05:58:45.792Z,2024
2017-07-23T05:59:26.302Z,2016
2017-07-23T06:00:06.838Z,2040
2017-07-23T06:00:47.375Z,2032
2017-07-23T06:01:27.907Z,1984
2017-07-23T06:02:08.433Z,2044
2017-07-23T06:02:48.962Z,2224
2017-07-23T06:03:29.490Z,2392
2017-07-23T06:04:10.021Z,2516
2017-07-23T06:04:50.536Z,2488
2017-07-23T06:05:31.059Z,2276
2017-07-23T06:06:11.595Z,2160
2017-07-23T06:06:52.130Z,2216
2017-07-23T06:07:32.777Z,2448
2017-07-23T06:08:13.296Z,2860
2017-07-23T06:08:53.820Z,3396
2017-07-23T06:09:34.335Z,4060
2017-07-23T06:10:14.849Z,4600
2017-07-23T06:10:55.350Z,4900
2017-07-23T06:11:36.380Z,4712
2017-07-23T06:12:16.903Z,4464
2017-07-23T06:12:57.433Z,4320
2017-07-23T06:13:37.961Z,4340
2017-07-23T06:14:18.496Z,4288
2017-07-23T06:14:59.039Z,4160
2017-07-23T06:15:39.566Z,4160
2017-07-23T06:16:20.109Z,4124
2017-07-23T06:17:00.816Z,4204
2017-07-23T06:17:41.334Z,4220
2017-07-23T06:18:21.838Z,4196
2017-07-23T06:19:02.359Z,4312
2017-07-23T06:19:42.872Z,4340
2017-07-23T06:20:23.451Z,4452
2017-07-23T06:21:04.048Z,4368
2017-07-23T06:21:44.869Z,4760
2017-07-23T06:22:25.643Z,4780
2017-07-23T06:23:06.195Z,4928
2017-07-23T06:23:46.786Z,5096
2017-07-23T06:24:27.338Z,5376
2017-07-23T06:25:08.023Z,5552
2017-07-23T06:25:48.535Z,5680
2017-07-23T06:26:29.032Z,5936
2017-07-23T06:27:09.743Z,5940
2017-07-23T06:27:50.306Z,5832
2017-07-23T06:28:30.839Z,5740
2017-07-23T06:29:11.335Z,5712
2017-07-23T06:29:52.204Z,5792
2017-07-23T06:30:33.119Z,5440
2017-07-23T06:31:13.643Z,5332
2017-07-23T06:31:54.322Z,5272
2017-07-23T06:32:34.839Z,5336
2017-07-23T06:33:15.557Z,5452
2017-07-23T06:33:56.043Z,5448
2017-07-23T06:34:36.872Z,5408
2017-07-23T06:35:17.332Z,5380
2017-07-23T06:35:57.982Z,5384
2017-07-23T06:36:38.840Z,5472
2017-07-23T06:37:19.407Z,5476
2017-07-23T06:38:00.126Z,5712
2017-07-23T06:38:40.932Z,5844
2017-07-23T06:39:21.580Z,5500
2017-07-23T06:40:02.092Z,5532
2017-07-23T06:40:42.614Z,5612
2017-07-23T06:41:23.140Z,5668
2017-07-23T06:42:03.789Z,5580
2017-07-23T06:42:44.339Z,5904
2017-07-23T06:43:24.970Z,6144
2017-07-23T06:44:05.501Z,6388
2017-07-23T06:44:46.346Z,6544
2017-07-23T06:45:27.093Z,6732
2017-07-23T06:46:07.731Z,6932
2017-07-23T06:46:48.478Z,6624
2017-07-23T06:47:29.239Z,7240
2017-07-23T06:48:10.034Z,7404
2017-07-23T06:48:50.673Z,7596
2017-07-23T06:49:31.270Z,7568
2017-07-23T06:50:11.793Z,7608
2017-07-23T06:50:52.490Z,7460
2017-07-23T06:51:33.029Z,7508
2017-07-23T06:52:13.534Z,7688
2017-07-23T06:52:54.139Z,7628
2017-07-23T06:53:34.695Z,7528
2017-07-23T06:54:15.233Z,7344
2017-07-23T06:54:55.962Z,7032
2017-07-23T06:55:36.531Z,6936
2017-07-23T06:56:17.061Z,7240
2017-07-23T06:56:57.858Z,7032
2017-07-23T06:57:38.391Z,6848
2017-07-23T06:58:18.899Z,7472
2017-07-23T06:58:59.505Z,7308
2017-07-23T06:59:40.485Z,7020
2017-07-23T07:00:21.004Z,6732
2017-07-23T07:01:01.519Z,6528
2017-07-23T07:01:42.044Z,6472
2017-07-23T07:02:22.571Z,6304
2017-07-23T07:03:03.080Z,6220
2017-07-23T07:03:43.606Z,6180
2017-07-23T07:04:24.155Z,6092
2017-07-23T07:05:04.702Z,6048
2017-07-23T07:05:45.181Z,5892
2017-07-23T07:06:25.683Z,5820
2017-07-23T07:07:06.206Z,5780
2017-07-23T07:07:46.736Z,5720
2017-07-23T07:08:27.466Z,5704
2017-07-23T07:09:08.113Z,5680
2017-07-23T07:09:48.752Z,5696
2017-07-23T07:10:29.349Z,5488
2017-07-23T07:11:09.974Z,5604
2017-07-23T07:11:50.712Z,5680
2017-07-23T07:12:31.257Z,5768
2017-07-23T07:13:11.955Z,5608
2017-07-23T07:13:52.692Z,5616
2017-07-23T07:14:33.455Z,5960
2017-07-23T07:15:14.126Z,5532
2017-07-23T07:15:54.754Z,5460
2017-07-23T07:16:35.456Z,5400
2017-07-23T07:17:15.952Z,5040
2017-07-23T07:17:56.489Z,5108
2017-07-23T07:18:37.263Z,5184
2017-07-23T07:19:17.841Z,5204
2017-07-23T07:19:58.398Z,5180
2017-07-23T07:20:38.916Z,5008
2017-07-23T07:21:19.437Z,4900
2017-07-23T07:22:00.231Z,4864
2017-07-23T07:22:40.822Z,4900
2017-07-23T07:23:21.462Z,4992
2017-07-23T07:24:02.004Z,5036
2017-07-23T07:24:42.683Z,5028
2017-07-23T07:25:23.371Z,5008
2017-07-23T07:26:04.042Z,4924
2017-07-23T07:26:44.919Z,4940
2017-07-23T07:27:25.579Z,4956
2017-07-23T07:28:06.227Z,4836
2017-07-23T07:28:46.775Z,4768
2017-07-23T07:29:27.261Z,4688
2017-07-23T07:30:07.784Z,4672
2017-07-23T07:30:48.309Z,4716
2017-07-23T07:31:28.836Z,4704
2017-07-23T07:32:09.358Z,4820
2017-07-23T07:32:50.030Z,4932
2017-07-23T07:33:30.604Z,5096
2017-07-23T07:34:11.170Z,5188
2017-07-23T07:34:51.866Z,5176
2017-07-23T07:35:32.874Z,5236
2017-07-23T07:36:13.395Z,5368
2017-07-23T07:36:54.123Z,5388
2017-07-23T07:37:34.934Z,5288
2017-07-23T07:38:15.538Z,5128
2017-07-23T07:38:56.317Z,5008
2017-07-23T07:39:36.864Z,4848
2017-07-23T07:40:17.401Z,4688
2017-07-23T07:40:57.937Z,4600
2017-07-23T07:41:38.474Z,4652
2017-07-23T07:42:19.008Z,4736
2017-07-23T07:42:59.531Z,4932
2017-07-23T07:43:40.088Z,4944
2017-07-23T07:44:20.609Z,5012
2017-07-23T07:45:01.138Z,5000
2017-07-23T07:45:41.691Z,5212
2017-07-23T07:46:22.215Z,4988
2017-07-23T07:47:02.718Z,5596
2017-07-23T07:47:43.241Z,4940
2017-07-23T07:48:23.747Z,5032
2017-07-23T07:49:04.293Z,5200
2017-07-23T07:49:44.806Z,5212
2017-07-23T07:50:25.347Z,5376
2017-07-23T07:51:05.883Z,5420
2017-07-23T07:51:46.415Z,5448
2017-07-23T07:52:26.941Z,5356
2017-07-23T07:53:07.728Z,4988
2017-07-23T07:53:48.125Z,5100
2017-07-23T07:54:28.649Z,5324
2017-07-23T07:55:09.293Z,5520
2017-07-23T07:55:49.955Z,5500
2017-07-23T07:56:30.379Z,6008
2017-07-23T07:57:10.893Z,6616
2017-07-23T07:57:51.411Z,6708
2017-07-23T07:58:32.767Z,6512
2017-07-23T07:59:13.328Z,6648
2017-07-23T07:59:53.843Z,6956
2017-07-23T08:00:34.363Z,7364
2017-07-23T08:01:14.882Z,7448
2017-07-23T08:01:55.427Z,8024
2017-07-23T08:02:35.964Z,8188
2017-07-23T08:03:16.458Z,8020
2017-07-23T08:03:56.971Z,7784
2017-07-23T08:04:37.471Z,7780
2017-07-23T08:05:18.006Z,7648
2017-07-23T08:05:58.532Z,7488
2017-07-23T08:06:39.035Z,8112
2017-07-23T08:07:19.563Z,8112
2017-07-23T08:08:00.089Z,8212
2017-07-23T08:08:40.734Z,8984
2017-07-23T08:09:21.279Z,8952
2017-07-23T08:10:01.812Z,9664
2017-07-23T08:10:42.348Z,9968
2017-07-23T08:11:22.910Z,10296
2017-07-23T08:12:03.461Z,10428
2017-07-23T08:12:43.979Z,10868
2017-07-23T08:13:24.497Z,17920
2017-07-23T08:14:05.022Z,28224
2017-07-23T08:14:45.579Z,13080
2017-07-23T08:15:26.114Z,25152
2017-07-23T08:16:06.637Z,61056
2017-07-23T08:16:47.167Z,33184
2017-07-23T08:17:27.699Z,44480
2017-07-23T08:18:08.230Z,61312
2017-07-23T08:18:48.757Z,43808
2017-07-23T08:19:29.269Z,59584
2017-07-23T08:20:09.994Z,57056
2017-07-23T08:20:50.534Z,53568
2017-07-23T08:21:31.039Z,62688
2017-07-23T08:22:11.543Z,31328
2017-07-23T08:22:52.076Z,30368
2017-07-23T08:23:32.606Z,56640
2017-07-23T08:24:13.120Z,10448
2017-07-23T08:24:53.663Z,22848
2017-07-23T08:25:34.193Z,13076
2017-07-23T08:26:14.758Z,42016
2017-07-23T08:26:55.295Z,25600
2017-07-23T08:27:35.847Z,69568
2017-07-23T08:28:16.342Z,63712
2017-07-23T08:28:56.832Z,66688
2017-07-23T08:29:37.353Z,66400
2017-07-23T08:30:17.886Z,69216
2017-07-23T08:30:58.411Z,70560
2017-07-23T08:31:38.926Z,69888
2017-07-23T08:32:19.472Z,70880
2017-07-23T08:32:59.946Z,15868
2017-07-23T08:33:40.456Z,25600
2017-07-23T08:34:21.058Z,8260
2017-07-23T08:35:01.568Z,10240
2017-07-23T08:35:42.177Z,11556
2017-07-23T08:36:22.709Z,30976
2017-07-23T08:37:03.221Z,74720
2017-07-23T08:37:43.732Z,72896
2017-07-23T08:38:24.265Z,72448
2017-07-23T08:39:04.833Z,44704
2017-07-23T08:39:45.360Z,74880
2017-07-23T08:40:25.909Z,73024
2017-07-23T08:41:06.451Z,72448
2017-07-23T08:41:46.983Z,73216
2017-07-23T08:42:27.501Z,73568
2017-07-23T08:43:08.041Z,73472
2017-07-23T08:43:48.589Z,18496
2017-07-23T08:44:29.120Z,78016
2017-07-23T08:45:09.652Z,54496
2017-07-23T08:45:50.184Z,14792
2017-07-23T08:46:31.100Z,71296
2017-07-23T08:47:11.639Z,65728
2017-07-23T08:47:52.176Z,64960
2017-07-23T08:48:32.721Z,63168
2017-07-23T08:49:13.238Z,7088
2017-07-23T08:49:53.766Z,65824
2017-07-23T08:50:34.390Z,67072
2017-07-23T08:51:14.946Z,67744
2017-07-23T08:51:55.462Z,8640
2017-07-23T08:52:36.031Z,69312
2017-07-23T08:53:16.573Z,16336
2017-07-23T08:53:57.164Z,72736
2017-07-23T08:54:37.698Z,77088
2017-07-23T08:55:18.233Z,78720
2017-07-23T08:55:58.770Z,79168
2017-07-23T08:56:39.317Z,78624
2017-07-23T08:57:19.836Z,79008
2017-07-23T08:58:00.428Z,80576
2017-07-23T08:58:40.966Z,73632
2017-07-23T08:59:21.508Z,72832
2017-07-23T09:00:02.049Z,56448
2017-07-23T09:00:43.004Z,74752
2017-07-23T09:01:24.244Z,74912
2017-07-23T09:02:04.911Z,72768
2017-07-23T09:02:45.438Z,73920
2017-07-23T09:03:26.467Z,74784
2017-07-23T09:04:07.141Z,74592
2017-07-23T09:04:47.685Z,75776
2017-07-23T09:05:28.384Z,80640
2017-07-23T09:06:08.900Z,80032
2017-07-23T09:06:49.451Z,78976
2017-07-23T09:07:29.980Z,79776
2017-07-23T09:08:10.687Z,80576
2017-07-23T09:08:51.347Z,79104
2017-07-23T09:09:31.832Z,76800
2017-07-23T09:10:12.499Z,76512
2017-07-23T09:10:53.152Z,78656
2017-07-23T09:11:34.074Z,80384
2017-07-23T09:12:14.730Z,79552
2017-07-23T09:12:55.479Z,75648
2017-07-23T09:13:36.650Z,75328
2017-07-23T09:14:17.479Z,76416
2017-07-23T09:14:58.094Z,77440
2017-07-23T09:15:39.274Z,78048
2017-07-23T09:16:20.077Z,78336
2017-07-23T09:17:00.781Z,77696
2017-07-23T09:17:41.530Z,76224
2017-07-23T09:18:22.636Z,69824
2017-07-23T09:19:03.607Z,67872
2017-07-23T09:19:44.313Z,68864
2017-07-23T09:20:25.122Z,62144
2017-07-23T09:21:05.578Z,9816
2017-07-23T09:21:46.151Z,8628
2017-07-23T09:22:26.897Z,53536
2017-07-23T09:23:07.430Z,9616
2017-07-23T09:23:48.273Z,14648
2017-07-23T09:24:29.170Z,60128
2017-07-23T09:25:09.990Z,33376
2017-07-23T09:25:50.920Z,15744
2017-07-23T09:26:31.624Z,14180
2017-07-23T09:27:12.275Z,13176
2017-07-23T09:27:53.376Z,13828
2017-07-23T09:28:34.144Z,12808
2017-07-23T09:29:14.694Z,11176
2017-07-23T09:29:55.325Z,11040
2017-07-23T09:30:36.121Z,16320
2017-07-23T09:31:16.756Z,15852
2017-07-23T09:31:57.317Z,17184
2017-07-23T09:32:38.098Z,15628
2017-07-23T09:33:19.037Z,12144
2017-07-23T09:33:59.815Z,11680
2017-07-23T09:34:40.794Z,10908
2017-07-23T09:35:21.777Z,9260